Terminal Aerodrome Forecast
Issued by NWS

Home | Current Version | Previous Version | Graphics & Text | Print | Product List | Glossary On
Versions: 1 2 3 4 5 6 7 8 9 10 11 12 13 14 15 16 17 18 19 20 21 22 23 24 25
000
FTUS43 KICT 190251 AAA
TAFHUT
TAF AMD
KHUT 190251Z 1903/1924 01005KT 5SM BR OVC006
     FM190400 04004KT 3SM BR OVC004
     FM190800 VRB03KT 1/2SM FG OVC002
      TEMPO 1909/1913 1/4SM FG OVC001
     FM191500 16004KT 4SM BR OVC004=

USA.gov is the U.S. government's official web portal to all federal, state and local government web resources and services.